Startpagina
METAR-TAF:

METAR-TAF

Vliegvelden :

Aéroport de Paris-Charles de Gaulle

Parijs-Charles De Gaulle, Frankrijk

breedte: 49-01N, lengte: 002-32E, hoogte: 118 m

Actueel weer

Dit bericht is 29 minuten geleden gemaakt, om 13:00 UTC
Wind 15 kt uit het zuidoosten
Temperatuur 12°C
Vochtigheid 58%
Druk 997 hPa
Zicht 10 km of meer
geen wolken onder 1500 m en geen cumulonimbus

METAR: LFPG 221300Z 13015KT CAVOK 12/04 Q0997 NOSIG

Tijdstip: 14:29 (13:29 UTC)

Verwachting

Dit bericht is 2 uur en het 29 minuten geleden gemaakt, om 11:00 UTC
Verwachting geldig van 22 om 12 UTC tot 23 om 18 UTC
Wind 12 kt uit het zuidoosten
Zicht 10 km of meer
geen wolken onder 1500 m en geen cumulonimbus
Tijdelijke
van 22 om 15 UTC tot 23 om 07 UTC
Wind 15 kt uit het zuidzuidoosten met uitschieters tot 25 kt
Kans 30% :
Tijdelijke
van 23 om 05 UTC tot 23 om 07 UTC
Gebroken wolken op 1200 ft

TAF: LFPG 221100Z 2212/2318 14012KT CAVOK TX12/2314Z TN08/2302Z TEMPO 2215/2307 15015G25KT PROB30 TEMPO 2305/2307 BKN012

Waarnemingen en weersverwachtingen van meer dan 4000 vliegvelden (METAR en TAF).

De beschikbare stations zijn de gele en rode punten op de kaart.

Ga met uw muis naar het station om de naam te zien.

Klik dan om waarnemingen en weersverwachtingen te zien.

kaart wijzigen: klik op de groene knoppen met een zwart kruis om in te zoomen, op de groene knop met een streepje om uit te zoomen of op de groene pijlen voor aangrenzende kaarten.


METAR-TAF: